Time;durP1;ratioP1;P1;durP2;ratioP2;P2;SDS_P1;SDS_P2;PMS_P1;PMS_P2;Temp;Humidity;BMP_temperature;BMP_pressure;BME280_temperature;BME280_humidity;BME280_pressure;Samples;Min_cycle;Max_cycle;Signal;HPM_P1;HPM_P2
2023/07/10 00:00:36;;;;;;;7.40;2.00;;;;;;;;;;5038337;27;99425;-76
2023/07/10 00:03:04;;;;;;;4.20;2.28;;;;;;;;;;5036994;27;100064;-77
2023/07/10 00:05:30;;;;;;;5.20;2.97;;;;;;;;;;5039565;27;98263;-76
2023/07/10 00:07:57;;;;;;;6.85;2.22;;;;;;;;;;5040619;27;99900;-76
2023/07/10 00:10:23;;;;;;;3.20;2.38;;;;;;;;;;5036001;27;98297;-77
2023/07/10 00:12:50;;;;;;;7.72;2.65;;;;;;;;;;5039484;27;100363;-76
2023/07/10 00:15:18;;;;;;;3.95;1.98;;;;;;;;;;5039459;27;99984;-77
2023/07/10 00:17:46;;;;;;;4.88;2.45;;;;;;;;;;5043414;27;99142;-77
2023/07/10 00:20:14;;;;;;;2.50;2.13;;;;;;;;;;5040859;27;98488;-76
2023/07/10 00:22:40;;;;;;;2.25;1.98;;;;;;;;;;5034640;27;100402;-76
2023/07/10 00:25:07;;;;;;;5.18;2.65;;;;;;;;;;5037123;27;98939;-76
2023/07/10 00:27:33;;;;;;;5.03;2.20;;;;;;;;;;5035976;27;99729;-78
2023/07/10 00:29:59;;;;;;;4.07;2.00;;;;;;;;;;5035363;27;98076;-76
2023/07/10 00:32:26;;;;;;;8.00;2.72;;;;;;;;;;5034936;27;100650;-77
2023/07/10 00:34:53;;;;;;;6.82;1.98;;;;;;;;;;5033282;27;101076;-77
2023/07/10 00:37:21;;;;;;;10.90;2.17;;;;;;;;;;5035066;27;98156;-77
2023/07/10 00:39:47;;;;;;;5.18;2.03;;;;;;;;;;5036764;27;98559;-76
2023/07/10 00:42:17;;;;;;;3.88;2.05;;;;;;;;;;5037965;27;99045;-76
2023/07/10 00:44:47;;;;;;;6.82;2.22;;;;;;;;;;5044071;27;98308;-76
2023/07/10 00:47:13;;;;;;;3.55;1.90;;;;;;;;;;5049256;27;99367;-76
2023/07/10 00:49:46;;;;;;;6.90;2.05;;;;;;;;;;5047305;27;98633;-77
2023/07/10 00:52:15;;;;;;;3.83;2.28;;;;;;;;;;5042076;27;100848;-76
2023/07/10 00:54:46;;;;;;;3.95;2.03;;;;;;;;;;5048408;27;99189;-79
2023/07/10 00:57:13;;;;;;;;;;;;;;;;;;5049790;27;98215;-77
2023/07/10 00:59:41;;;;;;;3.05;1.70;;;;;;;;;;5046620;27;128281;-77
2023/07/10 01:02:07;;;;;;;2.58;1.60;;;;;;;;;;5028644;27;98945;-78
2023/07/10 01:04:35;;;;;;;10.77;2.05;;;;;;;;;;5029341;27;98220;-76
2023/07/10 01:07:01;;;;;;;5.10;1.85;;;;;;;;;;5029172;28;98817;-76
2023/07/10 01:09:28;;;;;;;4.47;1.95;;;;;;;;;;5027585;27;98766;-77
2023/07/10 01:11:54;;;;;;;10.27;2.22;;;;;;;;;;5032558;27;98237;-77
2023/07/10 01:14:22;;;;;;;7.72;2.10;;;;;;;;;;5027722;28;102051;-77
2023/07/10 01:16:48;;;;;;;9.30;2.33;;;;;;;;;;5047272;27;98563;-77
2023/07/10 01:19:17;;;;;;;2.25;1.70;;;;;;;;;;5047888;27;101307;-76
2023/07/10 01:21:44;;;;;;;7.43;2.92;;;;;;;;;;5049017;27;99036;-78
2023/07/10 01:24:10;;;;;;;8.05;2.17;;;;;;;;;;5048749;27;98559;-77
2023/07/10 01:26:38;;;;;;;5.03;1.90;;;;;;;;;;5049705;27;99111;-78
2023/07/10 01:29:11;;;;;;;3.65;2.20;;;;;;;;;;5048199;27;99360;-77
2023/07/10 01:31:39;;;;;;;4.72;1.90;;;;;;;;;;5052367;27;98042;-78
2023/07/10 01:34:05;;;;;;;2.65;2.00;;;;;;;;;;5048438;27;98715;-77
2023/07/10 01:36:34;;;;;;;2.10;1.70;;;;;;;;;;5048585;27;98944;-77
2023/07/10 01:39:10;;;;;;;4.18;2.17;;;;;;;;;;5051178;27;98327;-78
2023/07/10 01:41:39;;;;;;;3.03;2.10;;;;;;;;;;5051225;27;99098;-77
2023/07/10 01:44:24;;;;;;;6.13;1.90;;;;;;;;;;5051222;27;98322;-78
2023/07/10 01:46:54;;;;;;;2.75;1.80;;;;;;;;;;5052727;27;99849;-77
2023/07/10 01:49:24;;;;;;;3.47;1.73;;;;;;;;;;5053790;27;100468;-77
2023/07/10 01:51:52;;;;;;;2.35;1.92;;;;;;;;;;5040608;27;98611;-77
2023/07/10 01:54:18;;;;;;;7.40;3.95;;;;;;;;;;5036130;27;98358;-77
2023/07/10 01:56:45;;;;;;;3.38;1.85;;;;;;;;;;5030401;28;98189;-77
2023/07/10 01:59:12;;;;;;;9.07;2.65;;;;;;;;;;5029070;27;100795;-77
2023/07/10 02:01:42;;;;;;;3.63;2.25;;;;;;;;;;5030355;27;102088;-79
2023/07/10 02:04:08;;;;;;;2.33;2.13;;;;;;;;;;5031293;27;98420;-78
2023/07/10 02:06:36;;;;;;;3.70;2.30;;;;;;;;;;5040650;27;100548;-77
2023/07/10 02:09:03;;;;;;;5.30;2.80;;;;;;;;;;5046750;27;99991;-77
2023/07/10 02:11:30;;;;;;;4.45;3.35;;;;;;;;;;5028087;28;98626;-78
2023/07/10 02:13:56;;;;;;;5.85;3.05;;;;;;;;;;5047582;27;98810;-78
2023/07/10 02:16:25;;;;;;;7.20;4.15;;;;;;;;;;5033228;28;100079;-77
2023/07/10 02:18:52;;;;;;;4.43;3.55;;;;;;;;;;5030868;27;100045;-78
2023/07/10 02:21:19;;;;;;;4.80;4.05;;;;;;;;;;5031215;28;100079;-76
2023/07/10 02:23:47;;;;;;;7.18;4.13;;;;;;;;;;5040685;27;98362;-77
2023/07/10 02:26:15;;;;;;;6.28;3.75;;;;;;;;;;5052307;27;99501;-77
2023/07/10 02:28:42;;;;;;;7.65;4.40;;;;;;;;;;5053700;27;100058;-78
2023/07/10 02:31:09;;;;;;;15.65;4.47;;;;;;;;;;5057857;27;98689;-78
2023/07/10 02:33:35;;;;;;;3.92;3.67;;;;;;;;;;5050548;27;98648;-78
2023/07/10 02:36:02;;;;;;;4.95;3.67;;;;;;;;;;5050339;27;100139;-78
2023/07/10 02:38:29;;;;;;;4.95;3.30;;;;;;;;;;5054809;27;98253;-78
2023/07/10 02:40:56;;;;;;;3.20;3.00;;;;;;;;;;5050920;27;98931;-77
2023/07/10 02:43:22;;;;;;;9.13;3.90;;;;;;;;;;5051355;27;98581;-77
2023/07/10 02:45:49;;;;;;;3.75;3.10;;;;;;;;;;5051614;27;98241;-78
2023/07/10 02:48:17;;;;;;;4.03;2.90;;;;;;;;;;5048201;27;100837;-78
2023/07/10 02:50:43;;;;;;;7.80;3.33;;;;;;;;;;5048728;27;98165;-78
2023/07/10 02:53:09;;;;;;;3.92;3.15;;;;;;;;;;5051280;27;98437;-78
2023/07/10 02:55:37;;;;;;;6.95;3.00;;;;;;;;;;5049071;27;102099;-78
2023/07/10 02:58:05;;;;;;;6.97;3.30;;;;;;;;;;5049772;27;98264;-78
2023/07/10 03:00:32;;;;;;;3.75;3.15;;;;;;;;;;5053606;27;98373;-78
2023/07/10 03:02:59;;;;;;;7.10;3.30;;;;;;;;;;5050137;27;98137;-77
2023/07/10 03:05:27;;;;;;;3.83;3.33;;;;;;;;;;5051873;27;98521;-78
2023/07/10 03:07:53;;;;;;;7.38;3.88;;;;;;;;;;5049134;27;101739;-78
2023/07/10 03:10:20;;;;;;;7.22;3.28;;;;;;;;;;5051403;27;98283;-77
2023/07/10 03:12:46;;;;;;;5.88;3.47;;;;;;;;;;5048972;27;99356;-78
2023/07/10 03:15:13;;;;;;;4.90;3.33;;;;;;;;;;5050506;27;98848;-79
2023/07/10 03:17:41;;;;;;;7.28;3.55;;;;;;;;;;5050664;27;98231;-77
2023/07/10 03:20:09;;;;;;;3.38;2.70;;;;;;;;;;5050102;27;98726;-77
2023/07/10 03:22:35;;;;;;;10.05;2.92;;;;;;;;;;5053410;27;99043;-78
2023/07/10 03:25:02;;;;;;;5.78;2.92;;;;;;;;;;5051466;27;98397;-77
2023/07/10 03:27:29;;;;;;;7.55;3.30;;;;;;;;;;5050398;27;99861;-78
2023/07/10 03:29:56;;;;;;;8.88;2.90;;;;;;;;;;5049754;27;98234;-77
2023/07/10 03:32:22;;;;;;;6.32;2.67;;;;;;;;;;5050090;27;98625;-78
2023/07/10 03:34:50;;;;;;;7.13;3.15;;;;;;;;;;5050111;27;99770;-78
2023/07/10 03:37:17;;;;;;;9.55;2.95;;;;;;;;;;5049286;27;98263;-78
2023/07/10 03:39:43;;;;;;;6.75;3.30;;;;;;;;;;5049897;27;98748;-78
2023/07/10 03:42:13;;;;;;;6.88;3.45;;;;;;;;;;5053772;27;100310;-78
2023/07/10 03:44:40;;;;;;;4.88;3.50;;;;;;;;;;5049522;27;98714;-78
2023/07/10 03:47:07;;;;;;;10.80;3.40;;;;;;;;;;5050532;27;99207;-78
2023/07/10 03:49:34;;;;;;;5.88;2.90;;;;;;;;;;5049456;27;98250;-79
2023/07/10 03:52:00;;;;;;;7.95;3.42;;;;;;;;;;5041316;27;99630;-77
2023/07/10 03:54:27;;;;;;;4.82;2.80;;;;;;;;;;5030171;27;99894;-77
2023/07/10 03:56:53;;;;;;;4.15;3.00;;;;;;;;;;5029599;27;98372;-78
2023/07/10 03:59:20;;;;;;;4.93;2.97;;;;;;;;;;5030037;27;98875;-76
2023/07/10 04:01:46;;;;;;;6.53;3.30;;;;;;;;;;5028436;27;100150;-77
2023/07/10 04:04:13;;;;;;;3.42;2.60;;;;;;;;;;5032519;27;98472;-78
2023/07/10 04:06:40;;;;;;;3.92;2.70;;;;;;;;;;5048033;27;100456;-78
2023/07/10 04:09:06;;;;;;;4.72;2.70;;;;;;;;;;5047649;27;98270;-78
2023/07/10 04:11:33;;;;;;;5.35;2.92;;;;;;;;;;5027779;27;100358;-77
2023/07/10 04:14:00;;;;;;;3.00;2.72;;;;;;;;;;5029514;28;99937;-77
2023/07/10 04:16:28;;;;;;;3.85;2.55;;;;;;;;;;5029238;28;98419;-78
2023/07/10 04:18:55;;;;;;;9.55;2.88;;;;;;;;;;5029434;27;99650;-78
2023/07/10 04:21:23;;;;;;;6.05;2.60;;;;;;;;;;5029443;28;98858;-77
2023/07/10 04:23:50;;;;;;;6.22;2.75;;;;;;;;;;5049126;27;98415;-76
2023/07/10 04:26:20;;;;;;;5.75;2.80;;;;;;;;;;5051570;27;99421;-78
2023/07/10 04:28:48;;;;;;;12.07;3.25;;;;;;;;;;5049986;27;98756;-78
2023/07/10 04:31:15;;;;;;;7.50;2.60;;;;;;;;;;5050048;27;99299;-79
2023/07/10 04:33:42;;;;;;;5.32;3.03;;;;;;;;;;5048248;27;99310;-77
2023/07/10 04:36:08;;;;;;;10.57;3.53;;;;;;;;;;5049834;27;98281;-78
2023/07/10 04:38:35;;;;;;;12.38;2.70;;;;;;;;;;5050035;27;98675;-78
2023/07/10 04:41:02;;;;;;;4.43;2.60;;;;;;;;;;5048924;27;99104;-77
2023/07/10 04:43:32;;;;;;;6.68;3.03;;;;;;;;;;5048603;27;97963;-78
2023/07/10 04:46:00;;;;;;;3.92;2.05;;;;;;;;;;5048370;27;99221;-77
2023/07/10 04:48:27;;;;;;;5.53;2.35;;;;;;;;;;5052997;27;100233;-77
2023/07/10 04:50:55;;;;;;;3.63;2.20;;;;;;;;;;5048901;27;99437;-77
2023/07/10 04:53:22;;;;;;;6.20;3.05;;;;;;;;;;5048735;27;99935;-77
2023/07/10 04:55:51;;;;;;;5.80;2.70;;;;;;;;;;5049524;27;98199;-77
2023/07/10 04:58:18;;;;;;;7.15;2.78;;;;;;;;;;5050063;27;99401;-77
2023/07/10 05:00:50;;;;;;;7.32;2.60;;;;;;;;;;5047800;27;98969;-77
2023/07/10 05:03:18;;;;;;;3.88;2.47;;;;;;;;;;5049829;27;98159;-77
2023/07/10 05:05:57;;;;;;;8.43;2.45;;;;;;;;;;5049085;27;98962;-77
2023/07/10 05:08:25;;;;;;;4.85;2.25;;;;;;;;;;5048567;27;99926;-77
2023/07/10 05:10:51;;;;;;;4.60;2.25;;;;;;;;;;5052190;27;98286;-77
2023/07/10 05:13:18;;;;;;;3.72;2.20;;;;;;;;;;5049230;27;100102;-78
2023/07/10 05:15:45;;;;;;;6.30;1.75;;;;;;;;;;5050688;27;98242;-78
2023/07/10 05:18:12;;;;;;;6.28;2.13;;;;;;;;;;5053874;27;99717;-77
2023/07/10 05:20:39;;;;;;;4.03;2.85;;;;;;;;;;5051996;27;99066;-77
2023/07/10 05:23:08;;;;;;;8.80;2.70;;;;;;;;;;5051494;27;98346;-77
2023/07/10 05:25:34;;;;;;;5.85;2.40;;;;;;;;;;5052276;27;98552;-78
2023/07/10 05:28:01;;;;;;;5.97;2.00;;;;;;;;;;5052018;27;98901;-77
2023/07/10 05:30:28;;;;;;;8.70;2.40;;;;;;;;;;5051961;27;98300;-77
2023/07/10 05:32:55;;;;;;;7.85;2.38;;;;;;;;;;5054307;27;98899;-77
2023/07/10 05:35:22;;;;;;;6.35;2.20;;;;;;;;;;5049572;27;98831;-76
2023/07/10 05:37:48;;;;;;;2.33;1.90;;;;;;;;;;5049809;27;99319;-78
2023/07/10 05:40:15;;;;;;;4.97;1.92;;;;;;;;;;5051522;27;99907;-78
2023/07/10 05:42:42;;;;;;;3.70;1.60;;;;;;;;;;5051304;27;98370;-78
2023/07/10 05:45:08;;;;;;;4.65;2.13;;;;;;;;;;5052537;27;99450;-78
2023/07/10 05:47:35;;;;;;;2.42;1.50;;;;;;;;;;5049799;27;99935;-74
2023/07/10 05:50:01;;;;;;;5.35;2.17;;;;;;;;;;5047947;27;98365;-74
2023/07/10 05:52:28;;;;;;;3.72;2.00;;;;;;;;;;5048038;27;99501;-74
2023/07/10 05:54:54;;;;;;;2.92;1.85;;;;;;;;;;5031955;27;98224;-74
2023/07/10 05:57:21;;;;;;;5.18;1.67;;;;;;;;;;5030572;27;99067;-73
2023/07/10 05:59:48;;;;;;;2.63;1.55;;;;;;;;;;5048488;27;98968;-73
2023/07/10 06:02:15;;;;;;;5.47;1.65;;;;;;;;;;5052095;27;98496;-73
2023/07/10 06:04:41;;;;;;;2.55;1.65;;;;;;;;;;5042305;27;100033;-73
2023/07/10 06:07:08;;;;;;;11.35;1.63;;;;;;;;;;5047534;27;101390;-74
2023/07/10 06:09:34;;;;;;;7.65;1.48;;;;;;;;;;5049435;27;98250;-74
2023/07/10 06:12:00;;;;;;;6.90;1.63;;;;;;;;;;5044829;27;98633;-73
2023/07/10 06:14:27;;;;;;;3.47;1.60;;;;;;;;;;5053709;27;100326;-73
2023/07/10 06:16:53;;;;;;;4.88;1.65;;;;;;;;;;5050923;27;98794;-72
2023/07/10 06:19:20;;;;;;;7.57;1.95;;;;;;;;;;5045228;27;100033;-73
2023/07/10 06:21:47;;;;;;;4.70;2.00;;;;;;;;;;5037486;27;98785;-73
2023/07/10 06:24:14;;;;;;;6.72;1.83;;;;;;;;;;5046844;27;99285;-73
2023/07/10 06:26:40;;;;;;;1.80;1.58;;;;;;;;;;5040873;27;99288;-74
2023/07/10 06:29:07;;;;;;;5.82;1.77;;;;;;;;;;5030475;27;98255;-78
2023/07/10 06:31:33;;;;;;;8.52;2.30;;;;;;;;;;5030142;28;98650;-77
2023/07/10 06:34:00;;;;;;;5.47;1.63;;;;;;;;;;5030935;27;99337;-77
2023/07/10 06:36:28;;;;;;;4.35;2.10;;;;;;;;;;5041464;27;98241;-77
2023/07/10 06:38:54;;;;;;;5.95;1.67;;;;;;;;;;5050674;27;100070;-77
2023/07/10 06:41:20;;;;;;;3.28;1.75;;;;;;;;;;5051249;27;98253;-75
2023/07/10 06:43:50;;;;;;;6.63;1.73;;;;;;;;;;5051104;27;100155;-76
2023/07/10 06:46:16;;;;;;;4.72;2.10;;;;;;;;;;5048577;27;99944;-75
2023/07/10 06:48:45;;;;;;;6.85;1.52;;;;;;;;;;5033048;27;98298;-76
2023/07/10 06:51:11;;;;;;;2.17;1.30;;;;;;;;;;5042444;27;98766;-75
2023/07/10 06:53:39;;;;;;;3.17;1.70;;;;;;;;;;5046072;27;99988;-76
2023/07/10 06:56:05;;;;;;;3.92;1.50;;;;;;;;;;5051244;27;98250;-76
2023/07/10 06:58:33;;;;;;;5.03;1.73;;;;;;;;;;5054029;27;99332;-76
2023/07/10 07:01:00;;;;;;;4.45;1.73;;;;;;;;;;5050509;27;98115;-76
2023/07/10 07:03:27;;;;;;;6.20;1.60;;;;;;;;;;5050235;27;99032;-75
2023/07/10 07:05:54;;;;;;;4.55;2.10;;;;;;;;;;5050652;27;98847;-78
2023/07/10 07:08:22;;;;;;;8.60;2.08;;;;;;;;;;5050066;27;98593;-78
2023/07/10 07:10:51;;;;;;;3.22;1.83;;;;;;;;;;5047764;27;99371;-75
2023/07/10 07:13:20;;;;;;;5.05;1.55;;;;;;;;;;5051016;27;99837;-77
2023/07/10 07:15:49;;;;;;;4.38;2.08;;;;;;;;;;5050093;27;98184;-77
2023/07/10 07:18:16;;;;;;;3.58;1.52;;;;;;;;;;5049490;27;99309;-78
2023/07/10 07:20:42;;;;;;;4.00;1.42;;;;;;;;;;5035990;27;100049;-77
2023/07/10 07:23:09;;;;;;;5.00;1.83;;;;;;;;;;5030802;28;99501;-77
2023/07/10 07:25:35;;;;;;;4.03;1.80;;;;;;;;;;5029971;27;99998;-77
2023/07/10 07:28:03;;;;;;;6.65;1.77;;;;;;;;;;5029992;27;98249;-77
2023/07/10 07:30:32;;;;;;;5.13;1.80;;;;;;;;;;5032143;27;98455;-78
2023/07/10 07:33:00;;;;;;;4.68;1.83;;;;;;;;;;5028816;28;98247;-78
2023/07/10 07:35:27;;;;;;;4.47;1.70;;;;;;;;;;5030431;27;98317;-78
2023/07/10 07:37:53;;;;;;;4.15;1.38;;;;;;;;;;5030514;27;99551;-79
2023/07/10 07:40:21;;;;;;;5.22;1.90;;;;;;;;;;5030167;27;100068;-78
2023/07/10 07:42:47;;;;;;;4.43;1.83;;;;;;;;;;5032082;28;98170;-77
2023/07/10 07:45:14;;;;;;;6.53;1.45;;;;;;;;;;5033568;27;99933;-77
2023/07/10 07:47:41;;;;;;;5.93;2.25;;;;;;;;;;5029871;27;98875;-78
2023/07/10 07:50:08;;;;;;;4.38;1.73;;;;;;;;;;5032158;27;98805;-77
2023/07/10 07:52:35;;;;;;;5.25;1.92;;;;;;;;;;5049881;27;100404;-77
2023/07/10 07:55:03;;;;;;;5.90;2.30;;;;;;;;;;5053011;27;98202;-77
2023/07/10 07:57:30;;;;;;;4.68;1.50;;;;;;;;;;5049472;27;99672;-77
2023/07/10 07:59:59;;;;;;;4.57;1.80;;;;;;;;;;5050238;27;100318;-77
2023/07/10 08:02:26;;;;;;;8.10;2.35;;;;;;;;;;5039982;27;98322;-77
2023/07/10 08:04:52;;;;;;;5.20;2.15;;;;;;;;;;5049207;27;99960;-76
2023/07/10 08:07:19;;;;;;;6.93;1.48;;;;;;;;;;5038236;27;98835;-77
2023/07/10 08:09:45;;;;;;;4.72;1.88;;;;;;;;;;5029476;28;99433;-77
2023/07/10 08:12:12;;;;;;;9.88;2.10;;;;;;;;;;5038794;27;99669;-77
2023/07/10 08:14:39;;;;;;;4.70;1.90;;;;;;;;;;5049457;27;98297;-77
2023/07/10 08:17:05;;;;;;;7.10;1.83;;;;;;;;;;5048959;27;99155;-77
2023/07/10 08:19:32;;;;;;;8.73;1.88;;;;;;;;;;5039188;27;99343;-77
2023/07/10 08:21:59;;;;;;;6.03;1.85;;;;;;;;;;5030928;27;98569;-78
2023/07/10 08:24:26;;;;;;;6.72;1.67;;;;;;;;;;5032991;27;99651;-78
2023/07/10 08:26:55;;;;;;;5.97;2.20;;;;;;;;;;5029620;28;98299;-77
2023/07/10 08:29:28;;;;;;;4.57;1.67;;;;;;;;;;5029639;27;99595;-78
2023/07/10 08:31:55;;;;;;;4.90;2.13;;;;;;;;;;5027939;27;100652;-78
2023/07/10 08:34:22;;;;;;;5.70;1.83;;;;;;;;;;5029625;27;98301;-78
2023/07/10 08:36:51;;;;;;;3.50;1.70;;;;;;;;;;5028702;27;99724;-78
2023/07/10 08:39:17;;;;;;;10.48;2.17;;;;;;;;;;5028211;27;99293;-78
2023/07/10 08:41:44;;;;;;;8.80;2.20;;;;;;;;;;5028809;28;98334;-77
2023/07/10 08:44:11;;;;;;;7.13;1.50;;;;;;;;;;5029375;27;98478;-77
2023/07/10 08:46:38;;;;;;;7.30;2.90;;;;;;;;;;5030997;27;102070;-77
2023/07/10 08:49:14;;;;;;;6.47;2.45;;;;;;;;;;5031643;27;99453;-78
2023/07/10 08:51:47;;;;;;;10.63;2.40;;;;;;;;;;5044192;27;100113;-78
2023/07/10 08:54:18;;;;;;;5.20;1.65;;;;;;;;;;5047804;27;98239;-78
2023/07/10 08:56:44;;;;;;;8.02;2.13;;;;;;;;;;5039575;27;98536;-78
2023/07/10 08:59:17;;;;;;;4.90;1.80;;;;;;;;;;5035249;27;98966;-78
2023/07/10 09:01:45;;;;;;;5.88;1.65;;;;;;;;;;5034759;27;98056;-78
2023/07/10 09:04:14;;;;;;;5.18;1.80;;;;;;;;;;5029059;27;99262;-78
2023/07/10 09:06:43;;;;;;;4.70;1.88;;;;;;;;;;5027882;27;100285;-75
2023/07/10 09:09:15;;;;;;;7.82;1.92;;;;;;;;;;5032864;27;98227;-77
2023/07/10 09:11:42;;;;;;;8.88;2.13;;;;;;;;;;5028742;28;98913;-78
2023/07/10 09:14:24;;;;;;;9.20;2.25;;;;;;;;;;5028911;27;98277;-77
2023/07/10 09:16:55;;;;;;;5.30;2.05;;;;;;;;;;5028260;27;98547;-77
2023/07/10 09:19:23;;;;;;;10.00;1.45;;;;;;;;;;5029043;27;99071;-77
2023/07/10 09:21:49;;;;;;;8.00;1.70;;;;;;;;;;5026813;27;98237;-77
2023/07/10 09:24:22;;;;;;;4.93;1.60;;;;;;;;;;5028317;27;98657;-77
2023/07/10 09:26:49;;;;;;;3.90;1.52;;;;;;;;;;5027619;27;99041;-77
2023/07/10 09:29:24;;;;;;;6.15;1.52;;;;;;;;;;5027727;27;98587;-77
2023/07/10 09:32:10;;;;;;;7.90;2.08;;;;;;;;;;5031728;27;99693;-77
2023/07/10 09:34:41;;;;;;;5.50;1.55;;;;;;;;;;5027914;27;98237;-77
2023/07/10 09:37:10;;;;;;;3.57;1.70;;;;;;;;;;5028391;27;98458;-77
2023/07/10 09:39:37;;;;;;;8.23;2.42;;;;;;;;;;5044161;27;99199;-77
2023/07/10 09:42:04;;;;;;;7.28;2.08;;;;;;;;;;5028020;27;98371;-77
2023/07/10 09:44:35;;;;;;;4.90;1.45;;;;;;;;;;5028524;27;99678;-77
2023/07/10 09:47:11;;;;;;;7.78;2.15;;;;;;;;;;5027610;27;99946;-77
2023/07/10 09:49:47;;;;;;;4.68;1.50;;;;;;;;;;5026160;28;98251;-77
2023/07/10 09:52:22;;;;;;;5.50;1.98;;;;;;;;;;5048655;27;98433;-77
2023/07/10 09:54:56;;;;;;;3.28;1.30;;;;;;;;;;5051029;27;98268;-77
2023/07/10 09:57:22;;;;;;;3.60;1.65;;;;;;;;;;5047822;27;98726;-77
2023/07/10 09:59:50;;;;;;;3.75;1.48;;;;;;;;;;5049359;27;98887;-77
2023/07/10 10:02:17;;;;;;;7.18;1.80;;;;;;;;;;5052093;27;98239;-77
2023/07/10 10:04:51;;;;;;;5.63;1.88;;;;;;;;;;5051320;27;99029;-77
2023/07/10 10:07:21;;;;;;;5.68;1.60;;;;;;;;;;5051730;27;99226;-78
2023/07/10 10:10:00;;;;;;;2.95;1.20;;;;;;;;;;5051008;27;98304;-77
2023/07/10 10:12:30;;;;;;;5.28;1.40;;;;;;;;;;5046536;27;99510;-77
2023/07/10 10:14:58;;;;;;;6.35;1.38;;;;;;;;;;5034401;27;100023;-76
2023/07/10 10:17:27;;;;;;;6.18;1.60;;;;;;;;;;5030693;28;98764;-76
2023/07/10 10:19:55;;;;;;;5.47;1.38;;;;;;;;;;5031384;27;99082;-76
2023/07/10 10:22:26;;;;;;;4.63;1.55;;;;;;;;;;5031487;28;98407;-76
2023/07/10 10:24:53;;;;;;;2.77;1.40;;;;;;;;;;5030656;27;98730;-76
2023/07/10 10:27:39;;;;;;;3.38;1.52;;;;;;;;;;5031218;27;99067;-76
2023/07/10 10:30:18;;;;;;;6.03;1.23;;;;;;;;;;5031752;27;98447;-77
2023/07/10 10:32:54;;;;;;;4.75;1.70;;;;;;;;;;5029975;27;98684;-77
2023/07/10 10:35:23;;;;;;;5.07;1.58;;;;;;;;;;5031201;28;98973;-77
2023/07/10 10:37:53;;;;;;;4.40;1.65;;;;;;;;;;5032757;27;98253;-76
2023/07/10 10:40:19;;;;;;;4.80;1.45;;;;;;;;;;5029780;28;100278;-77
2023/07/10 10:42:49;;;;;;;8.05;1.48;;;;;;;;;;5030575;27;98262;-77
2023/07/10 10:45:22;;;;;;;11.05;2.67;;;;;;;;;;5038693;27;98394;-77
2023/07/10 10:47:52;;;;;;;2.03;1.35;;;;;;;;;;5044524;27;101029;-77
2023/07/10 10:50:19;;;;;;;5.95;1.65;;;;;;;;;;5042026;27;98324;-77
2023/07/10 10:53:05;;;;;;;5.05;1.52;;;;;;;;;;5053114;27;99440;-78
2023/07/10 10:55:47;;;;;;;6.07;1.60;;;;;;;;;;5050888;27;99116;-77
2023/07/10 10:58:13;;;;;;;;;;;;;;;;;;5039203;27;98285;-77
2023/07/10 11:00:52;;;;;;;2.35;1.50;;;;;;;;;;5035842;27;118542;-77
2023/07/10 11:03:25;;;;;;;4.40;1.65;;;;;;;;;;5030484;27;98205;-78
2023/07/10 11:06:02;;;;;;;2.33;1.27;;;;;;;;;;5030040;27;99495;-77
2023/07/10 11:08:33;;;;;;;2.83;1.07;;;;;;;;;;5030297;27;100282;-77
2023/07/10 11:11:02;;;;;;;4.20;1.38;;;;;;;;;;5029591;27;98253;-76
2023/07/10 11:13:31;;;;;;;8.38;1.70;;;;;;;;;;5029340;27;98018;-77
2023/07/10 11:16:00;;;;;;;5.80;1.40;;;;;;;;;;5030653;27;98909;-78
2023/07/10 11:18:27;;;;;;;5.70;1.55;;;;;;;;;;5031308;28;98021;-75
2023/07/10 11:20:54;;;;;;;5.97;1.95;;;;;;;;;;5031991;27;98895;-77
2023/07/10 11:23:44;;;;;;;7.47;2.13;;;;;;;;;;5035867;28;100070;-77
2023/07/10 11:26:14;;;;;;;5.70;1.58;;;;;;;;;;5041920;27;98971;-77
2023/07/10 11:28:48;;;;;;;6.63;1.80;;;;;;;;;;5040829;27;98401;-76
2023/07/10 11:31:32;;;;;;;3.28;1.15;;;;;;;;;;5030211;27;99391;-75
2023/07/10 11:34:05;;;;;;;7.65;2.35;;;;;;;;;;5029494;27;99578;-77
2023/07/10 11:36:34;;;;;;;3.42;1.25;;;;;;;;;;5030097;28;99244;-78
2023/07/10 11:39:02;;;;;;;;;;;;;;;;;;5030783;27;98435;-76
2023/07/10 11:41:31;;;;;;;8.82;1.92;;;;;;;;;;5029405;28;99399;-76
2023/07/10 11:44:16;;;;;;;4.22;1.80;;;;;;;;;;5029807;27;98920;-76
2023/07/10 11:46:59;;;;;;;5.22;1.77;;;;;;;;;;5037433;27;98269;-76
2023/07/10 11:49:40;;;;;;;6.70;1.88;;;;;;;;;;5046942;27;99961;-78
2023/07/10 11:52:15;;;;;;;4.47;1.33;;;;;;;;;;5050326;27;98163;-76
2023/07/10 11:54:59;;;;;;;3.25;1.80;;;;;;;;;;5049389;27;99562;-78
2023/07/10 11:57:26;;;;;;;5.10;1.27;;;;;;;;;;5049187;27;100304;-76
2023/07/10 11:59:55;;;;;;;5.20;1.70;;;;;;;;;;5034442;27;98309;-76
2023/07/10 12:02:32;;;;;;;5.97;1.90;;;;;;;;;;5029066;27;98749;-78
2023/07/10 12:05:00;;;;;;;8.15;2.00;;;;;;;;;;5029775;27;99848;-77
2023/07/10 12:07:26;;;;;;;5.45;1.58;;;;;;;;;;5032469;27;98241;-78
2023/07/10 12:09:56;;;;;;;4.57;1.50;;;;;;;;;;5028935;27;100124;-78
2023/07/10 12:12:22;;;;;;;5.95;1.50;;;;;;;;;;5028372;27;98220;-77
2023/07/10 12:14:51;;;;;;;6.07;1.73;;;;;;;;;;5034148;27;98689;-77
2023/07/10 12:17:19;;;;;;;5.55;1.52;;;;;;;;;;5027915;27;98920;-77
2023/07/10 12:19:48;;;;;;;2.33;1.27;;;;;;;;;;5028472;27;98204;-76
2023/07/10 12:22:20;;;;;;;7.60;1.40;;;;;;;;;;5051697;27;99972;-76
2023/07/10 12:24:50;;;;;;;5.93;1.80;;;;;;;;;;5049099;27;99975;-76
2023/07/10 12:27:17;;;;;;;5.45;2.08;;;;;;;;;;5049344;27;98244;-76
2023/07/10 12:30:12;;;;;;;12.07;2.15;;;;;;;;;;5051310;27;99683;-76
2023/07/10 12:32:39;;;;;;;7.00;1.65;;;;;;;;;;5042936;27;98234;-76
2023/07/10 12:35:12;;;;;;;7.38;2.50;;;;;;;;;;5047823;27;99895;-75
2023/07/10 12:37:40;;;;;;;8.32;2.55;;;;;;;;;;5045579;27;100114;-76
2023/07/10 12:40:12;;;;;;;7.50;1.80;;;;;;;;;;5049293;27;98224;-77
2023/07/10 12:42:38;;;;;;;4.38;1.90;;;;;;;;;;5047167;27;99318;-77
2023/07/10 12:45:06;;;;;;;4.32;1.58;;;;;;;;;;5045546;27;100013;-75
2023/07/10 12:47:33;;;;;;;4.35;1.70;;;;;;;;;;5045689;27;99751;-77
2023/07/10 12:50:31;;;;;;;6.63;2.08;;;;;;;;;;5045883;27;98570;-76
2023/07/10 12:52:58;;;;;;;5.35;1.58;;;;;;;;;;5047860;27;100160;-76
2023/07/10 12:55:30;;;;;;;5.70;1.23;;;;;;;;;;5045731;27;99008;-76
2023/07/10 12:57:58;;;;;;;5.47;1.83;;;;;;;;;;5048324;27;99866;-77
2023/07/10 13:00:39;;;;;;;4.57;1.20;;;;;;;;;;5042662;27;99722;-77
2023/07/10 13:03:17;;;;;;;4.03;1.42;;;;;;;;;;5045453;27;98774;-76
2023/07/10 13:05:49;;;;;;;8.02;1.73;;;;;;;;;;5047672;27;99288;-77
2023/07/10 13:08:16;;;;;;;4.60;1.25;;;;;;;;;;5049351;27;98248;-77
2023/07/10 13:10:43;;;;;;;4.35;1.83;;;;;;;;;;5047503;27;98835;-77
2023/07/10 13:13:13;;;;;;;6.75;1.70;;;;;;;;;;5047627;27;99190;-76
2023/07/10 13:15:39;;;;;;;4.97;2.05;;;;;;;;;;5051494;27;98289;-76
2023/07/10 13:18:19;;;;;;;4.95;2.20;;;;;;;;;;5049005;27;99075;-77
2023/07/10 13:20:45;;;;;;;6.00;2.17;;;;;;;;;;5035008;27;98269;-77
2023/07/10 13:23:13;;;;;;;4.53;1.33;;;;;;;;;;5049106;27;99406;-76
2023/07/10 13:25:40;;;;;;;4.60;1.38;;;;;;;;;;5035115;27;99355;-76
2023/07/10 13:28:15;;;;;;;4.82;1.40;;;;;;;;;;5047184;27;98471;-77
2023/07/10 13:30:42;;;;;;;7.05;1.80;;;;;;;;;;5047201;27;98584;-77
2023/07/10 13:33:20;;;;;;;5.32;1.35;;;;;;;;;;5048364;27;99757;-76
2023/07/10 13:35:50;;;;;;;5.47;2.13;;;;;;;;;;5047639;27;98290;-75
2023/07/10 13:38:17;;;;;;;3.72;1.30;;;;;;;;;;5043950;27;98741;-78
2023/07/10 13:40:43;;;;;;;4.93;1.90;;;;;;;;;;5049901;27;98459;-77
2023/07/10 13:43:12;;;;;;;2.85;1.83;;;;;;;;;;5051801;27;98825;-77
2023/07/10 13:45:39;;;;;;;3.00;1.20;;;;;;;;;;5048163;27;99958;-76
2023/07/10 13:48:14;;;;;;;2.70;1.20;;;;;;;;;;5050490;27;98354;-75
2023/07/10 13:50:42;;;;;;;3.97;1.23;;;;;;;;;;5057569;27;99249;-76
2023/07/10 13:53:13;;;;;;;2.63;1.40;;;;;;;;;;5054076;27;99999;-77
2023/07/10 13:55:40;;;;;;;2.70;1.30;;;;;;;;;;5036837;27;98338;-76
2023/07/10 13:58:14;;;;;;;5.97;2.45;;;;;;;;;;5052112;27;99348;-77
2023/07/10 14:00:42;;;;;;;3.75;1.45;;;;;;;;;;5037076;27;99954;-78
2023/07/10 14:03:10;;;;;;;3.95;1.65;;;;;;;;;;5036391;27;98553;-77
2023/07/10 14:05:37;;;;;;;4.82;1.58;;;;;;;;;;5048213;27;99833;-76
2023/07/10 14:08:12;;;;;;;6.25;1.58;;;;;;;;;;5047579;27;98974;-76
2023/07/10 14:10:38;;;;;;;6.18;1.50;;;;;;;;;;5047876;27;99465;-78
2023/07/10 14:13:09;;;;;;;3.65;1.13;;;;;;;;;;5049774;27;99131;-78
2023/07/10 14:15:38;;;;;;;4.93;1.05;;;;;;;;;;5043387;27;98691;-77
2023/07/10 14:18:12;;;;;;;5.53;1.42;;;;;;;;;;5049584;27;99352;-76
2023/07/10 14:20:39;;;;;;;5.63;1.50;;;;;;;;;;5051101;27;98900;-76
2023/07/10 14:23:12;;;;;;;4.65;2.22;;;;;;;;;;5050701;27;101176;-77
2023/07/10 14:25:38;;;;;;;3.13;1.30;;;;;;;;;;5050635;27;100770;-76
2023/07/10 14:28:09;;;;;;;3.75;1.25;;;;;;;;;;5051633;27;98189;-77
2023/07/10 14:30:35;;;;;;;6.13;1.45;;;;;;;;;;5048695;27;99663;-75
2023/07/10 14:33:02;;;;;;;7.05;2.05;;;;;;;;;;5050367;27;98889;-76
2023/07/10 14:35:31;;;;;;;2.78;1.30;;;;;;;;;;5051262;27;98271;-75
2023/07/10 14:37:58;;;;;;;3.17;1.30;;;;;;;;;;5049056;27;98602;-76
2023/07/10 14:40:25;;;;;;;4.35;1.35;;;;;;;;;;5047168;27;100010;-75
2023/07/10 14:42:52;;;;;;;7.65;1.60;;;;;;;;;;5053455;27;98195;-74
2023/07/10 14:45:19;;;;;;;3.40;1.40;;;;;;;;;;5049097;27;100186;-78
2023/07/10 14:47:45;;;;;;;4.93;1.60;;;;;;;;;;5049458;27;98155;-75
2023/07/10 14:50:12;;;;;;;7.57;2.05;;;;;;;;;;5047774;27;101264;-75